createdAt,value
2017-10-21T00:00:17.201Z,936.08
2017-10-21T00:00:45.207Z,936.07
2017-10-21T00:01:13.240Z,936.07
2017-10-21T00:01:41.287Z,936.05
2017-10-21T00:02:09.407Z,936.02
2017-10-21T00:02:37.446Z,936.05
2017-10-21T00:03:05.475Z,936.05
2017-10-21T00:03:33.591Z,936.02
2017-10-21T00:04:01.507Z,936.02
2017-10-21T00:04:29.414Z,936.01
2017-10-21T00:04:57.468Z,936.03
2017-10-21T00:05:25.389Z,936.02
2017-10-21T00:05:53.427Z,936.04
2017-10-21T00:06:21.540Z,935.99
2017-10-21T00:06:49.486Z,935.99
2017-10-21T00:07:17.350Z,935.99
2017-10-21T00:07:45.376Z,935.98
2017-10-21T00:08:13.497Z,935.95
2017-10-21T00:08:41.514Z,935.97
2017-10-21T00:09:09.639Z,935.95
2017-10-21T00:09:37.867Z,935.95
2017-10-21T00:10:05.906Z,935.95
2017-10-21T00:10:33.931Z,935.92
2017-10-21T00:11:01.735Z,935.91
2017-10-21T00:11:29.762Z,935.92
2017-10-21T00:11:57.889Z,935.96
2017-10-21T00:12:25.915Z,935.95
2017-10-21T00:12:53.922Z,935.92
2017-10-21T00:13:22.069Z,935.91
2017-10-21T00:13:49.803Z,935.91
2017-10-21T00:14:17.948Z,935.92
2017-10-21T00:14:46.168Z,935.91
2017-10-21T00:15:14.283Z,935.87
2017-10-21T00:15:42.196Z,935.91
2017-10-21T00:16:10.122Z,935.88
2017-10-21T00:16:38.115Z,935.92
2017-10-21T00:17:06.126Z,935.9
2017-10-21T00:17:34.147Z,935.88
2017-10-21T00:18:02.288Z,935.88
2017-10-21T00:18:30.293Z,935.88
2017-10-21T00:18:58.426Z,935.86
2017-10-21T00:19:26.570Z,935.87
2017-10-21T00:19:54.452Z,935.89
2017-10-21T00:20:22.370Z,935.85
2017-10-21T00:20:50.398Z,935.89
2017-10-21T00:21:18.526Z,935.81
2017-10-21T00:21:46.664Z,935.81
2017-10-21T00:22:14.801Z,935.84
2017-10-21T00:22:42.707Z,935.84
2017-10-21T00:23:10.860Z,935.85
2017-10-21T00:23:38.688Z,935.82
2017-10-21T00:24:06.629Z,935.82
2017-10-21T00:24:34.760Z,935.79
2017-10-21T00:25:02.812Z,935.78
2017-10-21T00:25:30.958Z,935.81
2017-10-21T00:25:58.859Z,935.78
2017-10-21T00:26:26.680Z,935.76
2017-10-21T00:26:54.791Z,935.76
2017-10-21T00:27:22.782Z,935.74
2017-10-21T00:27:50.818Z,935.71
2017-10-21T00:28:18.638Z,935.73
2017-10-21T00:28:46.752Z,935.69
2017-10-21T00:29:14.763Z,935.71
2017-10-21T00:29:42.819Z,935.71
2017-10-21T00:30:10.762Z,935.66
2017-10-21T00:30:38.791Z,935.7
2017-10-21T00:31:06.894Z,935.67
2017-10-21T00:31:34.897Z,935.67
2017-10-21T00:32:03.036Z,935.62
2017-10-21T00:32:31.175Z,935.65
2017-10-21T00:32:59.203Z,935.63
2017-10-21T00:33:27.325Z,935.6
2017-10-21T00:33:55.243Z,935.6
2017-10-21T00:34:23.207Z,935.58
2017-10-21T00:34:51.207Z,935.57
2017-10-21T00:35:19.274Z,935.58
2017-10-21T00:35:47.304Z,935.63
2017-10-21T00:36:15.354Z,935.62
2017-10-21T00:36:43.461Z,935.62
2017-10-21T00:37:11.257Z,935.62
2017-10-21T00:37:39.363Z,935.65
2017-10-21T00:38:07.394Z,935.63
2017-10-21T00:38:35.526Z,935.62
2017-10-21T00:39:03.629Z,935.67
2017-10-21T00:39:31.759Z,935.68
2017-10-21T00:39:59.777Z,935.71
2017-10-21T00:40:27.900Z,935.71
2017-10-21T00:40:55.820Z,935.71
2017-10-21T00:41:23.835Z,935.7
2017-10-21T00:41:51.743Z,935.71
2017-10-21T00:42:19.655Z,935.73
2017-10-21T00:42:47.693Z,935.71
2017-10-21T00:43:15.791Z,935.73
2017-10-21T00:43:43.716Z,935.75
2017-10-21T00:44:11.759Z,935.75
2017-10-21T00:44:39.881Z,935.75
2017-10-21T00:45:07.992Z,935.76
2017-10-21T00:45:36.091Z,935.74
2017-10-21T00:46:04.129Z,935.78
2017-10-21T00:46:32.137Z,935.78
2017-10-21T00:47:00.271Z,935.81
2017-10-21T00:47:28.380Z,935.79
2017-10-21T00:47:56.398Z,935.78
2017-10-21T00:48:24.502Z,935.81
2017-10-21T00:48:52.614Z,935.8
2017-10-21T00:49:20.713Z,935.81
2017-10-21T00:49:48.690Z,935.81
2017-10-21T00:50:16.730Z,935.84
2017-10-21T00:50:44.865Z,935.79
2017-10-21T00:51:12.900Z,935.78
2017-10-21T00:51:40.895Z,935.79
2017-10-21T00:52:08.881Z,935.82
2017-10-21T00:52:36.890Z,935.8
2017-10-21T00:53:04.918Z,935.8
2017-10-21T00:53:33.042Z,935.76
2017-10-21T00:54:01.034Z,935.76
2017-10-21T00:54:28.950Z,935.76
2017-10-21T00:54:56.861Z,935.75
2017-10-21T00:55:24.906Z,935.74
2017-10-21T00:55:52.910Z,935.75
2017-10-21T00:56:20.944Z,935.72
2017-10-21T00:56:48.970Z,935.7
2017-10-21T00:57:17.117Z,935.73
2017-10-21T00:57:44.958Z,935.71
2017-10-21T00:58:12.952Z,935.71
2017-10-21T00:58:40.953Z,935.75
2017-10-21T00:59:09.080Z,935.68
2017-10-21T00:59:37.097Z,935.67
2017-10-21T01:00:05.987Z,935.7
2017-10-21T01:00:33.789Z,935.68
2017-10-21T01:01:01.926Z,935.68
2017-10-21T01:01:29.705Z,935.63
2017-10-21T01:01:57.747Z,935.68
2017-10-21T01:02:25.866Z,935.64
2017-10-21T01:02:53.889Z,935.63
2017-10-21T01:03:21.795Z,935.61
2017-10-21T01:03:49.921Z,935.61
2017-10-21T01:04:18.050Z,935.56
2017-10-21T01:04:45.949Z,935.58
2017-10-21T01:05:13.843Z,935.58
2017-10-21T01:05:41.952Z,935.58
2017-10-21T01:06:09.774Z,935.59
2017-10-21T01:06:37.779Z,935.63
2017-10-21T01:07:05.755Z,935.6
2017-10-21T01:07:33.782Z,935.62
2017-10-21T01:08:01.701Z,935.59
2017-10-21T01:08:29.709Z,935.62
2017-10-21T01:08:57.639Z,935.62
2017-10-21T01:09:25.770Z,935.64
2017-10-21T01:09:53.925Z,935.63
2017-10-21T01:10:21.843Z,935.66
2017-10-21T01:10:49.896Z,935.67
2017-10-21T01:11:18.156Z,935.7
2017-10-21T01:11:46.282Z,935.68
2017-10-21T01:12:14.207Z,935.67
2017-10-21T01:12:42.293Z,935.67
2017-10-21T01:13:10.190Z,935.67
2017-10-21T01:13:38.273Z,935.67
2017-10-21T01:14:06.400Z,935.68
2017-10-21T01:14:34.404Z,935.67
2017-10-21T01:15:02.537Z,935.66
2017-10-21T01:15:30.341Z,935.65
2017-10-21T01:15:58.467Z,935.65
2017-10-21T01:16:26.593Z,935.66
2017-10-21T01:16:54.707Z,935.62
2017-10-21T01:17:22.845Z,935.62
2017-10-21T01:17:50.650Z,935.61
2017-10-21T01:18:18.676Z,935.59
2017-10-21T01:18:46.823Z,935.58
2017-10-21T01:19:14.867Z,935.55
2017-10-21T01:19:42.774Z,935.57
2017-10-21T01:20:10.825Z,935.57
2017-10-21T01:20:38.775Z,935.57
2017-10-21T01:21:06.875Z,935.57
2017-10-21T01:21:34.981Z,935.55
2017-10-21T01:22:03.049Z,935.53
2017-10-21T01:22:30.977Z,935.52
2017-10-21T01:22:58.895Z,935.49
2017-10-21T01:23:26.947Z,935.51
2017-10-21T01:23:54.952Z,935.5
2017-10-21T01:24:22.957Z,935.51
2017-10-21T01:24:51.417Z,935.56
2017-10-21T01:25:19.533Z,935.54
2017-10-21T01:25:47.544Z,935.57
2017-10-21T01:26:15.661Z,935.6
2017-10-21T01:26:43.687Z,935.57
2017-10-21T01:27:11.715Z,935.6
2017-10-21T01:27:39.689Z,935.62
2017-10-21T01:28:07.603Z,935.63
2017-10-21T01:28:35.712Z,935.63
2017-10-21T01:29:03.514Z,935.64
2017-10-21T01:29:31.497Z,935.64
2017-10-21T01:29:59.501Z,935.67
2017-10-21T01:30:27.501Z,935.69
2017-10-21T01:30:55.602Z,935.69
2017-10-21T01:31:23.647Z,935.72
2017-10-21T01:31:51.658Z,935.68
2017-10-21T01:32:19.792Z,935.7
2017-10-21T01:32:47.628Z,935.7
2017-10-21T01:33:15.629Z,935.71
2017-10-21T01:33:43.638Z,935.74
2017-10-21T01:34:11.641Z,935.71
2017-10-21T01:34:39.727Z,935.7
2017-10-21T01:35:07.725Z,935.71
2017-10-21T01:35:35.855Z,935.72
2017-10-21T01:36:03.963Z,935.69
2017-10-21T01:36:31.980Z,935.7
2017-10-21T01:37:00.012Z,935.7
2017-10-21T01:37:28.033Z,935.73
2017-10-21T01:37:55.948Z,935.67
2017-10-21T01:38:23.970Z,935.69
2017-10-21T01:38:51.919Z,935.7
2017-10-21T01:39:19.943Z,935.7
2017-10-21T01:39:47.965Z,935.68
2017-10-21T01:40:15.977Z,935.72
2017-10-21T01:40:44.102Z,935.68
2017-10-21T01:41:12.152Z,935.68
2017-10-21T01:41:40.158Z,935.68
2017-10-21T01:42:08.180Z,935.66
2017-10-21T01:42:36.072Z,935.67
2017-10-21T01:43:04.171Z,935.66
2017-10-21T01:43:31.928Z,935.66
2017-10-21T01:43:59.851Z,935.61
2017-10-21T01:44:27.869Z,935.63
2017-10-21T01:44:56.006Z,935.6
2017-10-21T01:45:24.117Z,935.65
2017-10-21T01:45:52.131Z,935.61
2017-10-21T01:46:20.236Z,935.59
2017-10-21T01:46:48.276Z,935.63
2017-10-21T01:47:16.186Z,935.65
2017-10-21T01:47:44.213Z,935.56
2017-10-21T01:48:12.224Z,935.58
2017-10-21T01:48:40.244Z,935.59
2017-10-21T01:49:08.343Z,935.59
2017-10-21T01:49:36.285Z,935.57
2017-10-21T01:50:04.307Z,935.62
2017-10-21T01:50:32.331Z,935.62
2017-10-21T01:51:00.360Z,935.59
2017-10-21T01:51:28.170Z,935.58
2017-10-21T01:51:56.202Z,935.59
2017-10-21T01:52:24.230Z,935.62
2017-10-21T01:52:52.351Z,935.6
2017-10-21T01:53:20.370Z,935.61
2017-10-21T01:53:48.273Z,935.6
2017-10-21T01:54:16.192Z,935.59
2017-10-21T01:54:44.306Z,935.58
2017-10-21T01:55:12.533Z,935.57
2017-10-21T01:55:40.661Z,935.53
2017-10-21T01:56:08.677Z,935.55
2017-10-21T01:56:36.711Z,935.55
2017-10-21T01:57:04.798Z,935.52
2017-10-21T01:57:32.832Z,935.56
2017-10-21T01:58:00.857Z,935.52
2017-10-21T01:58:28.732Z,935.51
2017-10-21T01:58:56.656Z,935.53
2017-10-21T01:59:24.774Z,935.5
2017-10-21T01:59:52.616Z,935.54
2017-10-21T02:00:20.574Z,935.49
2017-10-21T02:00:48.526Z,935.5
2017-10-21T02:01:16.461Z,935.53
2017-10-21T02:01:44.459Z,935.52
2017-10-21T02:02:12.597Z,935.54
2017-10-21T02:02:40.707Z,935.52
2017-10-21T02:03:08.535Z,935.55
2017-10-21T02:03:36.645Z,935.58
2017-10-21T02:04:04.679Z,935.51
2017-10-21T02:04:32.698Z,935.53
2017-10-21T02:05:00.826Z,935.53
2017-10-21T02:05:28.752Z,935.51
2017-10-21T02:05:56.896Z,935.54
2017-10-21T02:06:24.988Z,935.52
2017-10-21T02:06:53.096Z,935.5
2017-10-21T02:07:21.113Z,935.48
2017-10-21T02:07:49.149Z,935.46
2017-10-21T02:08:17.086Z,935.48
2017-10-21T02:08:45.080Z,935.48
2017-10-21T02:09:13.009Z,935.47
2017-10-21T02:09:40.921Z,935.47
2017-10-21T02:10:09.051Z,935.45
2017-10-21T02:10:37.165Z,935.42
2017-10-21T02:11:05.294Z,935.43
2017-10-21T02:11:33.318Z,935.43
2017-10-21T02:12:01.232Z,935.43
2017-10-21T02:12:29.419Z,935.43
2017-10-21T02:12:57.534Z,935.41
2017-10-21T02:13:25.552Z,935.41
2017-10-21T02:13:53.584Z,935.45
2017-10-21T02:14:21.508Z,935.46
2017-10-21T02:14:49.533Z,935.46
2017-10-21T02:15:17.933Z,935.41
2017-10-21T02:15:46.058Z,935.44
2017-10-21T02:16:14.181Z,935.4
2017-10-21T02:16:42.204Z,935.43
2017-10-21T02:17:10.122Z,935.44
2017-10-21T02:17:38.040Z,935.41
2017-10-21T02:18:06.155Z,935.41
2017-10-21T02:18:34.189Z,935.45
2017-10-21T02:19:02.180Z,935.42
2017-10-21T02:19:30.303Z,935.42
2017-10-21T02:19:58.334Z,935.44
2017-10-21T02:20:26.439Z,935.44
2017-10-21T02:20:54.526Z,935.39
2017-10-21T02:21:22.659Z,935.43
2017-10-21T02:21:50.669Z,935.42
2017-10-21T02:22:18.478Z,935.4
2017-10-21T02:22:46.399Z,935.41
2017-10-21T02:23:14.527Z,935.39
2017-10-21T02:23:42.356Z,935.37
2017-10-21T02:24:10.377Z,935.4
2017-10-21T02:24:38.494Z,935.35
2017-10-21T02:25:06.612Z,935.34
2017-10-21T02:25:34.988Z,935.36
2017-10-21T02:26:02.795Z,935.36
2017-10-21T02:26:30.921Z,935.35
2017-10-21T02:26:59.021Z,935.36
2017-10-21T02:27:26.970Z,935.34
2017-10-21T02:27:55.098Z,935.37
2017-10-21T02:28:23.146Z,935.33
2017-10-21T02:28:51.200Z,935.35
2017-10-21T02:29:19.217Z,935.33
2017-10-21T02:29:47.272Z,935.34
2017-10-21T02:30:15.079Z,935.32
2017-10-21T02:30:43.205Z,935.32
2017-10-21T02:31:11.201Z,935.3
2017-10-21T02:31:39.323Z,935.35
2017-10-21T02:32:07.352Z,935.32
2017-10-21T02:32:35.379Z,935.34
2017-10-21T02:33:03.473Z,935.35
2017-10-21T02:33:31.498Z,935.33
2017-10-21T02:33:59.510Z,935.34
2017-10-21T02:34:27.522Z,935.32
2017-10-21T02:34:55.540Z,935.36
2017-10-21T02:35:23.545Z,935.37
2017-10-21T02:35:51.786Z,935.36
2017-10-21T02:36:19.882Z,935.37
2017-10-21T02:36:48.009Z,935.37
2017-10-21T02:37:16.037Z,935.35
2017-10-21T02:37:44.077Z,935.39
2017-10-21T02:38:12.092Z,935.41
2017-10-21T02:38:40.079Z,935.39
2017-10-21T02:39:07.999Z,935.39
2017-10-21T02:39:36.141Z,935.36
2017-10-21T02:40:04.256Z,935.34
2017-10-21T02:40:32.131Z,935.35
2017-10-21T02:41:00.219Z,935.34
2017-10-21T02:41:28.336Z,935.3
2017-10-21T02:41:56.449Z,935.31
2017-10-21T02:42:24.466Z,935.29
2017-10-21T02:42:52.317Z,935.31
2017-10-21T02:43:20.422Z,935.26
2017-10-21T02:43:48.565Z,935.31
2017-10-21T02:44:16.546Z,935.29
2017-10-21T02:44:44.592Z,935.27
2017-10-21T02:45:12.635Z,935.32
2017-10-21T02:45:40.806Z,935.29
2017-10-21T02:46:08.794Z,935.29
2017-10-21T02:46:36.833Z,935.3
2017-10-21T02:47:05.073Z,935.26
2017-10-21T02:47:33.095Z,935.29
2017-10-21T02:48:01.118Z,935.27
2017-10-21T02:48:29.147Z,935.26
2017-10-21T02:48:57.062Z,935.28
2017-10-21T02:49:25.187Z,935.27
2017-10-21T02:49:52.989Z,935.22
2017-10-21T02:50:21.090Z,935.24
2017-10-21T02:50:49.088Z,935.26
2017-10-21T02:51:17.098Z,935.21
2017-10-21T02:51:45.109Z,935.22
2017-10-21T02:52:13.122Z,935.22
2017-10-21T02:52:41.221Z,935.2
2017-10-21T02:53:09.165Z,935.2
2017-10-21T02:53:37.164Z,935.18
2017-10-21T02:54:05.077Z,935.19
2017-10-21T02:54:33.203Z,935.16
2017-10-21T02:55:01.295Z,935.19
2017-10-21T02:55:29.317Z,935.18
2017-10-21T02:55:57.572Z,935.17
2017-10-21T02:56:25.667Z,935.17
2017-10-21T02:56:53.796Z,935.16
2017-10-21T02:57:21.952Z,935.16
2017-10-21T02:57:49.957Z,935.17
2017-10-21T02:58:17.917Z,935.18
2017-10-21T02:58:45.946Z,935.2
2017-10-21T02:59:13.970Z,935.21
2017-10-21T02:59:42.089Z,935.24
2017-10-21T03:00:10.119Z,935.23
2017-10-21T03:00:38.019Z,935.24
2017-10-21T03:01:06.143Z,935.27
2017-10-21T03:01:34.164Z,935.28
2017-10-21T03:02:02.278Z,935.21
2017-10-21T03:02:30.411Z,935.25
2017-10-21T03:02:58.439Z,935.28
2017-10-21T03:03:26.366Z,935.25
2017-10-21T03:03:54.477Z,935.28
2017-10-21T03:04:22.378Z,935.25
2017-10-21T03:04:50.368Z,935.26
2017-10-21T03:05:18.384Z,935.27
2017-10-21T03:05:46.314Z,935.3
2017-10-21T03:06:14.344Z,935.18
2017-10-21T03:06:42.261Z,935.21
2017-10-21T03:07:10.078Z,935.25
2017-10-21T03:07:38.090Z,935.2
2017-10-21T03:08:06.099Z,935.25
2017-10-21T03:08:34.229Z,935.21
2017-10-21T03:09:02.240Z,935.2
2017-10-21T03:09:30.243Z,935.21
2017-10-21T03:09:58.384Z,935.18
2017-10-21T03:10:26.405Z,935.18
2017-10-21T03:10:54.521Z,935.16
2017-10-21T03:11:22.542Z,935.15
2017-10-21T03:11:50.433Z,935.12
2017-10-21T03:12:18.557Z,935.17
2017-10-21T03:12:46.559Z,935.17
2017-10-21T03:13:14.553Z,935.14
2017-10-21T03:13:42.689Z,935.17
2017-10-21T03:14:10.593Z,935.14
2017-10-21T03:14:38.653Z,935.19
2017-10-21T03:15:06.777Z,935.2
2017-10-21T03:15:34.899Z,935.21
2017-10-21T03:16:02.801Z,935.22
2017-10-21T03:16:30.724Z,935.25
2017-10-21T03:16:58.839Z,935.25
2017-10-21T03:17:26.837Z,935.29
2017-10-21T03:17:54.757Z,935.3
2017-10-21T03:18:22.772Z,935.3
2017-10-21T03:18:50.875Z,935.29
2017-10-21T03:19:19.003Z,935.3
2017-10-21T03:19:46.899Z,935.34
2017-10-21T03:20:14.903Z,935.31
2017-10-21T03:20:42.920Z,935.33
2017-10-21T03:21:10.952Z,935.32
2017-10-21T03:21:38.744Z,935.38
2017-10-21T03:22:06.877Z,935.36
2017-10-21T03:22:34.814Z,935.34
2017-10-21T03:23:02.846Z,935.35
2017-10-21T03:23:30.867Z,935.31
2017-10-21T03:23:58.768Z,935.32
2017-10-21T03:24:26.788Z,935.31
2017-10-21T03:24:54.818Z,935.25
2017-10-21T03:25:22.837Z,935.26
2017-10-21T03:25:50.841Z,935.24
2017-10-21T03:26:18.963Z,935.22
2017-10-21T03:26:46.851Z,935.28
2017-10-21T03:27:14.781Z,935.19
2017-10-21T03:27:42.687Z,935.18
2017-10-21T03:28:10.790Z,935.17
2017-10-21T03:28:38.915Z,935.14
2017-10-21T03:29:06.836Z,935.09
2017-10-21T03:29:34.823Z,935.1
2017-10-21T03:30:02.754Z,935.09
2017-10-21T03:30:30.687Z,935.09
2017-10-21T03:30:58.695Z,935.1
2017-10-21T03:31:26.832Z,935.07
2017-10-21T03:31:54.925Z,935.07
2017-10-21T03:32:22.933Z,935.06
2017-10-21T03:32:50.937Z,935.09
2017-10-21T03:33:18.879Z,935.08
2017-10-21T03:33:46.888Z,935.07
2017-10-21T03:34:14.945Z,935.09
2017-10-21T03:34:42.859Z,935.12
2017-10-21T03:35:10.859Z,935.12
2017-10-21T03:35:38.974Z,935.15
2017-10-21T03:36:07.112Z,935.11
2017-10-21T03:36:35.115Z,935.14
2017-10-21T03:37:03.129Z,935.15
2017-10-21T03:37:31.240Z,935.14
2017-10-21T03:37:59.386Z,935.15
2017-10-21T03:38:27.405Z,935.15
2017-10-21T03:38:55.516Z,935.16
2017-10-21T03:39:23.554Z,935.17
2017-10-21T03:39:51.685Z,935.14
2017-10-21T03:40:19.633Z,935.09
2017-10-21T03:40:47.630Z,935.1
2017-10-21T03:41:15.702Z,935.09
2017-10-21T03:41:43.842Z,935.04
2017-10-21T03:42:11.765Z,935.06
2017-10-21T03:42:39.794Z,935.07
2017-10-21T03:43:07.928Z,935.03
2017-10-21T03:43:35.725Z,935.02
2017-10-21T03:44:03.823Z,934.99
2017-10-21T03:44:31.832Z,934.97
2017-10-21T03:44:59.837Z,934.95
2017-10-21T03:45:27.907Z,934.97
2017-10-21T03:45:55.795Z,934.97
2017-10-21T03:46:23.922Z,934.98
2017-10-21T03:46:51.941Z,934.96
2017-10-21T03:47:19.878Z,934.95
2017-10-21T03:47:47.878Z,934.96
2017-10-21T03:48:15.780Z,934.97
2017-10-21T03:48:43.488Z,934.96
2017-10-21T03:49:11.511Z,934.97
2017-10-21T03:49:39.415Z,934.97
2017-10-21T03:50:07.532Z,934.97
2017-10-21T03:50:35.479Z,934.96
2017-10-21T03:51:03.520Z,934.97
2017-10-21T03:51:31.659Z,934.95
2017-10-21T03:51:59.762Z,934.9
2017-10-21T03:52:27.755Z,934.93
2017-10-21T03:52:55.902Z,934.89
2017-10-21T03:53:24.044Z,934.84
2017-10-21T03:53:51.965Z,934.86
2017-10-21T03:54:19.775Z,934.88
2017-10-21T03:54:47.686Z,934.87
2017-10-21T03:55:15.704Z,934.9
2017-10-21T03:55:43.726Z,934.87
2017-10-21T03:56:11.674Z,934.9
2017-10-21T03:56:39.792Z,934.84
2017-10-21T03:57:07.733Z,934.88
2017-10-21T03:57:35.857Z,934.83
2017-10-21T03:58:03.977Z,934.85
2017-10-21T03:58:31.994Z,934.88
2017-10-21T03:59:00.091Z,934.89
2017-10-21T03:59:28.217Z,934.88
2017-10-21T03:59:56.109Z,934.89
2017-10-21T04:00:24.113Z,934.87
2017-10-21T04:00:52.206Z,934.88
2017-10-21T04:01:20.301Z,934.9
2017-10-21T04:01:48.317Z,934.88
2017-10-21T04:02:16.328Z,934.87
2017-10-21T04:02:44.440Z,934.88
2017-10-21T04:03:12.385Z,934.92
2017-10-21T04:03:40.401Z,934.91
2017-10-21T04:04:08.292Z,934.87
2017-10-21T04:04:36.278Z,934.93
2017-10-21T04:05:04.288Z,934.94
2017-10-21T04:05:32.280Z,934.96
2017-10-21T04:06:00.264Z,934.93
2017-10-21T04:06:28.268Z,934.98
2017-10-21T04:06:56.161Z,934.97
2017-10-21T04:07:24.286Z,934.95
2017-10-21T04:07:52.308Z,934.97
2017-10-21T04:08:20.402Z,934.96
2017-10-21T04:08:48.547Z,934.96
2017-10-21T04:09:16.357Z,934.95
2017-10-21T04:09:44.384Z,934.94
2017-10-21T04:10:12.398Z,934.96
2017-10-21T04:10:40.522Z,934.93
2017-10-21T04:11:08.653Z,934.95
2017-10-21T04:11:36.678Z,934.98
2017-10-21T04:12:04.673Z,934.98
2017-10-21T04:12:32.707Z,934.98
2017-10-21T04:13:00.729Z,934.94
2017-10-21T04:13:29.439Z,934.94
2017-10-21T04:13:57.469Z,934.93
2017-10-21T04:14:25.390Z,934.89
2017-10-21T04:14:53.283Z,934.94
2017-10-21T04:15:21.329Z,934.9
2017-10-21T04:15:49.432Z,934.87
2017-10-21T04:16:17.548Z,934.88
2017-10-21T04:16:45.467Z,934.91
2017-10-21T04:17:13.499Z,934.87
2017-10-21T04:17:41.507Z,934.86
2017-10-21T04:18:09.508Z,934.85
2017-10-21T04:18:37.444Z,934.84
2017-10-21T04:19:05.459Z,934.82
2017-10-21T04:19:33.463Z,934.83
2017-10-21T04:20:01.489Z,934.81
2017-10-21T04:20:29.593Z,934.83
2017-10-21T04:20:57.517Z,934.85
2017-10-21T04:21:25.623Z,934.81
2017-10-21T04:21:53.754Z,934.82
2017-10-21T04:22:21.877Z,934.79
2017-10-21T04:22:49.995Z,934.82
2017-10-21T04:23:18.099Z,934.82
2017-10-21T04:23:46.213Z,934.81
2017-10-21T04:24:14.142Z,934.83
2017-10-21T04:24:42.157Z,934.8
2017-10-21T04:25:10.289Z,934.81
2017-10-21T04:25:38.405Z,934.84
2017-10-21T04:26:06.440Z,934.82
2017-10-21T04:26:34.671Z,934.83
2017-10-21T04:27:02.719Z,934.88
2017-10-21T04:27:30.614Z,934.85
2017-10-21T04:27:58.606Z,934.88
2017-10-21T04:28:26.647Z,934.91
2017-10-21T04:28:54.548Z,934.9
2017-10-21T04:29:22.678Z,934.88
2017-10-21T04:29:50.688Z,934.91
2017-10-21T04:30:18.811Z,934.94
2017-10-21T04:30:46.926Z,934.91
2017-10-21T04:31:15.015Z,934.86
2017-10-21T04:31:43.145Z,934.88
2017-10-21T04:32:11.274Z,934.89
2017-10-21T04:32:39.389Z,934.89
2017-10-21T04:33:07.412Z,934.91
2017-10-21T04:33:35.460Z,934.84
2017-10-21T04:34:03.275Z,934.85
2017-10-21T04:34:31.269Z,934.87
2017-10-21T04:34:59.272Z,934.83
2017-10-21T04:35:27.206Z,934.91
2017-10-21T04:35:55.231Z,934.87
2017-10-21T04:36:23.342Z,934.85
2017-10-21T04:36:51.388Z,934.86
2017-10-21T04:37:19.313Z,934.83
2017-10-21T04:37:47.409Z,934.83
2017-10-21T04:38:15.524Z,934.83
2017-10-21T04:38:43.508Z,934.81
2017-10-21T04:39:11.453Z,934.79
2017-10-21T04:39:39.587Z,934.79
2017-10-21T04:40:07.699Z,934.77
2017-10-21T04:40:35.814Z,934.75
2017-10-21T04:41:03.936Z,934.72
2017-10-21T04:41:32.049Z,934.69
2017-10-21T04:42:00.240Z,934.73
2017-10-21T04:42:28.244Z,934.7
2017-10-21T04:42:56.260Z,934.71
2017-10-21T04:43:24.281Z,934.66
2017-10-21T04:43:52.302Z,934.68
2017-10-21T04:44:20.355Z,934.66
2017-10-21T04:44:48.284Z,934.68
2017-10-21T04:45:16.193Z,934.66
2017-10-21T04:45:44.201Z,934.68
2017-10-21T04:46:12.206Z,934.67
2017-10-21T04:46:40.135Z,934.66
2017-10-21T04:47:08.147Z,934.64
2017-10-21T04:47:36.271Z,934.65
2017-10-21T04:48:04.294Z,934.64
2017-10-21T04:48:32.385Z,934.61
2017-10-21T04:49:00.440Z,934.63
2017-10-21T04:49:28.266Z,934.57
2017-10-21T04:49:56.388Z,934.58
2017-10-21T04:50:24.482Z,934.55
2017-10-21T04:50:52.526Z,934.59
2017-10-21T04:51:20.564Z,934.57
2017-10-21T04:51:48.550Z,934.59
2017-10-21T04:52:16.669Z,934.59
2017-10-21T04:52:44.782Z,934.63
2017-10-21T04:53:12.817Z,934.57
2017-10-21T04:53:40.735Z,934.58
2017-10-21T04:54:08.642Z,934.58
2017-10-21T04:54:36.646Z,934.56
2017-10-21T04:55:04.656Z,934.57
2017-10-21T04:55:32.647Z,934.57
2017-10-21T04:56:00.511Z,934.55
2017-10-21T04:56:28.525Z,934.6
2017-10-21T04:56:56.629Z,934.57
2017-10-21T04:57:24.646Z,934.61
2017-10-21T04:57:52.668Z,934.55
2017-10-21T04:58:20.570Z,934.6
2017-10-21T04:58:48.590Z,934.58
2017-10-21T04:59:16.616Z,934.61
2017-10-21T04:59:44.395Z,934.64
2017-10-21T05:00:12.421Z,934.6
2017-10-21T05:00:40.464Z,934.59
2017-10-21T05:01:08.462Z,934.66
2017-10-21T05:01:36.486Z,934.58
2017-10-21T05:02:04.429Z,934.61
2017-10-21T05:02:32.559Z,934.58
2017-10-21T05:03:00.586Z,934.56
2017-10-21T05:03:28.604Z,934.58
2017-10-21T05:03:56.504Z,934.58
2017-10-21T05:04:24.497Z,934.52
2017-10-21T05:04:52.608Z,934.52
2017-10-21T05:05:20.747Z,934.54
2017-10-21T05:05:48.787Z,934.53
2017-10-21T05:06:16.884Z,934.54
2017-10-21T05:06:44.985Z,934.51
2017-10-21T05:07:13.112Z,934.51
2017-10-21T05:07:41.244Z,934.51
2017-10-21T05:08:09.136Z,934.51
2017-10-21T05:08:37.151Z,934.52
2017-10-21T05:09:05.257Z,934.52
2017-10-21T05:09:33.385Z,934.5
2017-10-21T05:10:01.422Z,934.53
2017-10-21T05:10:29.443Z,934.5
2017-10-21T05:10:57.349Z,934.53
2017-10-21T05:11:25.487Z,934.51
2017-10-21T05:11:53.629Z,934.53
2017-10-21T05:12:21.710Z,934.55
2017-10-21T05:12:49.821Z,934.53
2017-10-21T05:13:17.813Z,934.53
2017-10-21T05:13:45.831Z,934.51
2017-10-21T05:14:13.845Z,934.52
2017-10-21T05:14:41.781Z,934.51
2017-10-21T05:15:09.672Z,934.54
2017-10-21T05:15:37.579Z,934.54
2017-10-21T05:16:05.495Z,934.55
2017-10-21T05:16:33.625Z,934.56
2017-10-21T05:17:01.637Z,934.61
2017-10-21T05:17:29.663Z,934.59
2017-10-21T05:17:57.675Z,934.57
2017-10-21T05:18:25.786Z,934.59
2017-10-21T05:18:53.800Z,934.58
2017-10-21T05:19:21.924Z,934.58
2017-10-21T05:19:49.617Z,934.63
2017-10-21T05:20:17.540Z,934.58
2017-10-21T05:20:45.261Z,934.6
2017-10-21T05:21:13.249Z,934.62
2017-10-21T05:21:41.348Z,934.62
2017-10-21T05:22:09.247Z,934.64
2017-10-21T05:22:37.268Z,934.67
2017-10-21T05:23:05.196Z,934.67
2017-10-21T05:23:33.092Z,934.66
2017-10-21T05:24:00.979Z,934.69
2017-10-21T05:24:29.063Z,934.68
2017-10-21T05:24:56.979Z,934.69
2017-10-21T05:25:25.022Z,934.66
2017-10-21T05:25:52.962Z,934.67
2017-10-21T05:26:20.923Z,934.67
2017-10-21T05:26:48.944Z,934.68
2017-10-21T05:27:17.322Z,934.69
2017-10-21T05:27:45.340Z,934.71
2017-10-21T05:28:13.446Z,934.68
2017-10-21T05:28:41.478Z,934.68
2017-10-21T05:29:09.578Z,934.69
2017-10-21T05:29:37.505Z,934.71
2017-10-21T05:30:05.525Z,934.71
2017-10-21T05:30:33.455Z,934.72
2017-10-21T05:31:01.449Z,934.71
2017-10-21T05:31:29.469Z,934.74
2017-10-21T05:31:57.471Z,934.72
2017-10-21T05:32:25.480Z,934.72
2017-10-21T05:32:53.490Z,934.72
2017-10-21T05:33:21.518Z,934.73
2017-10-21T05:33:49.518Z,934.75
2017-10-21T05:34:17.474Z,934.73
2017-10-21T05:34:45.376Z,934.76
2017-10-21T05:35:13.420Z,934.74
2017-10-21T05:35:41.361Z,934.79
2017-10-21T05:36:09.464Z,934.75
2017-10-21T05:36:37.588Z,934.76
2017-10-21T05:37:05.507Z,934.74
2017-10-21T05:37:33.612Z,934.71
2017-10-21T05:38:01.709Z,934.74
2017-10-21T05:38:29.820Z,934.73
2017-10-21T05:38:57.836Z,934.7
2017-10-21T05:39:25.839Z,934.73
2017-10-21T05:39:53.737Z,934.74
2017-10-21T05:40:21.820Z,934.7
2017-10-21T05:40:49.859Z,934.7
2017-10-21T05:41:17.989Z,934.7
2017-10-21T05:41:46.137Z,934.72
2017-10-21T05:42:14.312Z,934.7
2017-10-21T05:42:42.317Z,934.66
2017-10-21T05:43:10.328Z,934.68
2017-10-21T05:43:38.446Z,934.66
2017-10-21T05:44:06.414Z,934.67
2017-10-21T05:44:34.537Z,934.67
2017-10-21T05:45:02.597Z,934.68
2017-10-21T05:45:30.595Z,934.65
2017-10-21T05:45:58.635Z,934.68
2017-10-21T05:46:26.745Z,934.65
2017-10-21T05:46:54.767Z,934.71
2017-10-21T05:47:22.789Z,934.7
2017-10-21T05:47:50.716Z,934.67
2017-10-21T05:48:18.725Z,934.7
2017-10-21T05:48:46.704Z,934.7
2017-10-21T05:49:14.700Z,934.7
2017-10-21T05:49:42.637Z,934.72
2017-10-21T05:50:10.748Z,934.71
2017-10-21T05:50:38.868Z,934.71